sensor_id;sensor_type;location;lat;lon;timestamp;P1;durP1;ratioP1;P2;durP2;ratioP2
2618;SDS011;1319;52.346;13.096;2024-02-21T00:02:20;19.90;;;6.07;;
2618;SDS011;1319;52.346;13.096;2024-02-21T00:04:46;20.77;;;5.60;;
2618;SDS011;1319;52.346;13.096;2024-02-21T00:07:11;17.57;;;5.87;;
2618;SDS011;1319;52.346;13.096;2024-02-21T00:09:36;22.10;;;6.60;;
2618;SDS011;1319;52.346;13.096;2024-02-21T00:12:01;26.27;;;6.73;;
2618;SDS011;1319;52.346;13.096;2024-02-21T00:14:28;21.67;;;6.37;;
2618;SDS011;1319;52.346;13.096;2024-02-21T00:16:53;22.27;;;5.83;;
2618;SDS011;1319;52.346;13.096;2024-02-21T00:19:18;21.67;;;6.13;;
2618;SDS011;1319;52.346;13.096;2024-02-21T00:21:43;29.57;;;6.20;;
2618;SDS011;1319;52.346;13.096;2024-02-21T00:24:08;19.93;;;5.57;;
2618;SDS011;1319;52.346;13.096;2024-02-21T00:26:34;22.43;;;5.90;;
2618;SDS011;1319;52.346;13.096;2024-02-21T00:28:59;20.97;;;5.50;;
2618;SDS011;1319;52.346;13.096;2024-02-21T00:31:24;19.13;;;5.80;;
2618;SDS011;1319;52.346;13.096;2024-02-21T00:33:49;26.63;;;5.67;;
2618;SDS011;1319;52.346;13.096;2024-02-21T00:36:15;18.40;;;5.80;;
2618;SDS011;1319;52.346;13.096;2024-02-21T00:38:40;25.63;;;5.43;;
2618;SDS011;1319;52.346;13.096;2024-02-21T00:41:06;16.20;;;5.47;;
2618;SDS011;1319;52.346;13.096;2024-02-21T00:43:31;19.43;;;5.53;;
2618;SDS011;1319;52.346;13.096;2024-02-21T00:45:56;21.67;;;5.97;;
2618;SDS011;1319;52.346;13.096;2024-02-21T00:48:21;15.30;;;5.53;;
2618;SDS011;1319;52.346;13.096;2024-02-21T00:50:47;25.47;;;5.67;;
2618;SDS011;1319;52.346;13.096;2024-02-21T00:53:12;20.07;;;5.63;;
2618;SDS011;1319;52.346;13.096;2024-02-21T00:55:38;24.20;;;6.03;;
2618;SDS011;1319;52.346;13.096;2024-02-21T00:58:03;18.30;;;5.80;;
2618;SDS011;1319;52.346;13.096;2024-02-21T01:00:28;23.07;;;5.83;;
2618;SDS011;1319;52.346;13.096;2024-02-21T01:02:53;18.37;;;5.10;;
2618;SDS011;1319;52.346;13.096;2024-02-21T01:05:19;22.40;;;6.20;;
2618;SDS011;1319;52.346;13.096;2024-02-21T01:07:45;20.60;;;5.37;;
2618;SDS011;1319;52.346;13.096;2024-02-21T01:10:10;18.37;;;5.40;;
2618;SDS011;1319;52.346;13.096;2024-02-21T01:12:35;22.37;;;5.63;;
2618;SDS011;1319;52.346;13.096;2024-02-21T01:15:01;19.83;;;5.30;;
2618;SDS011;1319;52.346;13.096;2024-02-21T01:17:26;16.83;;;5.63;;
2618;SDS011;1319;52.346;13.096;2024-02-21T01:19:51;22.20;;;5.80;;
2618;SDS011;1319;52.346;13.096;2024-02-21T01:22:16;22.47;;;5.30;;
2618;SDS011;1319;52.346;13.096;2024-02-21T01:24:42;18.00;;;6.43;;
2618;SDS011;1319;52.346;13.096;2024-02-21T01:27:08;18.77;;;5.10;;
2618;SDS011;1319;52.346;13.096;2024-02-21T01:29:33;22.63;;;5.80;;
2618;SDS011;1319;52.346;13.096;2024-02-21T01:31:58;23.73;;;5.40;;
2618;SDS011;1319;52.346;13.096;2024-02-21T01:34:23;23.17;;;5.73;;
2618;SDS011;1319;52.346;13.096;2024-02-21T01:36:48;21.03;;;5.00;;
2618;SDS011;1319;52.346;13.096;2024-02-21T01:39:14;28.50;;;6.10;;
2618;SDS011;1319;52.346;13.096;2024-02-21T01:41:39;22.47;;;5.97;;
2618;SDS011;1319;52.346;13.096;2024-02-21T01:44:05;15.77;;;6.10;;
2618;SDS011;1319;52.346;13.096;2024-02-21T01:46:30;17.30;;;5.37;;
2618;SDS011;1319;52.346;13.096;2024-02-21T01:48:56;17.83;;;5.40;;
2618;SDS011;1319;52.346;13.096;2024-02-21T01:51:22;21.83;;;5.10;;
2618;SDS011;1319;52.346;13.096;2024-02-21T01:53:47;17.33;;;5.13;;
2618;SDS011;1319;52.346;13.096;2024-02-21T01:56:12;22.47;;;5.70;;
2618;SDS011;1319;52.346;13.096;2024-02-21T01:58:39;20.30;;;5.60;;
2618;SDS011;1319;52.346;13.096;2024-02-21T02:01:05;17.33;;;5.33;;
2618;SDS011;1319;52.346;13.096;2024-02-21T02:03:31;24.50;;;5.80;;
2618;SDS011;1319;52.346;13.096;2024-02-21T02:05:56;19.80;;;5.57;;
2618;SDS011;1319;52.346;13.096;2024-02-21T02:08:21;21.27;;;5.60;;
2618;SDS011;1319;52.346;13.096;2024-02-21T02:10:47;19.90;;;5.50;;
2618;SDS011;1319;52.346;13.096;2024-02-21T02:13:12;19.63;;;6.00;;
2618;SDS011;1319;52.346;13.096;2024-02-21T02:15:41;22.23;;;5.40;;
2618;SDS011;1319;52.346;13.096;2024-02-21T02:18:07;18.10;;;5.33;;
2618;SDS011;1319;52.346;13.096;2024-02-21T02:20:32;22.60;;;5.93;;
2618;SDS011;1319;52.346;13.096;2024-02-21T02:23:00;18.43;;;5.63;;
2618;SDS011;1319;52.346;13.096;2024-02-21T02:25:29;22.47;;;5.77;;
2618;SDS011;1319;52.346;13.096;2024-02-21T02:27:54;20.83;;;5.93;;
2618;SDS011;1319;52.346;13.096;2024-02-21T02:30:19;20.73;;;5.50;;
2618;SDS011;1319;52.346;13.096;2024-02-21T02:32:45;27.60;;;5.73;;
2618;SDS011;1319;52.346;13.096;2024-02-21T02:35:11;18.23;;;5.77;;
2618;SDS011;1319;52.346;13.096;2024-02-21T02:37:36;23.20;;;5.87;;
2618;SDS011;1319;52.346;13.096;2024-02-21T02:40:03;19.67;;;5.73;;
2618;SDS011;1319;52.346;13.096;2024-02-21T02:42:28;24.00;;;6.13;;
2618;SDS011;1319;52.346;13.096;2024-02-21T02:44:54;16.37;;;5.33;;
2618;SDS011;1319;52.346;13.096;2024-02-21T02:47:19;25.97;;;6.43;;
2618;SDS011;1319;52.346;13.096;2024-02-21T02:49:44;17.13;;;6.00;;
2618;SDS011;1319;52.346;13.096;2024-02-21T02:52:09;23.43;;;6.00;;
2618;SDS011;1319;52.346;13.096;2024-02-21T02:54:35;25.73;;;5.80;;
2618;SDS011;1319;52.346;13.096;2024-02-21T02:57:00;23.60;;;6.30;;
2618;SDS011;1319;52.346;13.096;2024-02-21T02:59:25;20.43;;;6.33;;
2618;SDS011;1319;52.346;13.096;2024-02-21T03:01:50;23.20;;;6.67;;
2618;SDS011;1319;52.346;13.096;2024-02-21T03:04:16;22.87;;;6.80;;
2618;SDS011;1319;52.346;13.096;2024-02-21T03:06:41;25.10;;;6.27;;
2618;SDS011;1319;52.346;13.096;2024-02-21T03:09:06;22.00;;;6.30;;
2618;SDS011;1319;52.346;13.096;2024-02-21T03:11:33;20.10;;;6.40;;
2618;SDS011;1319;52.346;13.096;2024-02-21T03:13:58;24.50;;;6.97;;
2618;SDS011;1319;52.346;13.096;2024-02-21T03:16:24;21.50;;;6.17;;
2618;SDS011;1319;52.346;13.096;2024-02-21T03:18:49;22.17;;;6.30;;
2618;SDS011;1319;52.346;13.096;2024-02-21T03:21:14;19.70;;;6.57;;
2618;SDS011;1319;52.346;13.096;2024-02-21T03:23:40;17.10;;;6.67;;
2618;SDS011;1319;52.346;13.096;2024-02-21T03:26:05;24.53;;;6.10;;
2618;SDS011;1319;52.346;13.096;2024-02-21T03:28:30;20.40;;;6.57;;
2618;SDS011;1319;52.346;13.096;2024-02-21T03:30:55;30.23;;;6.73;;
2618;SDS011;1319;52.346;13.096;2024-02-21T03:33:20;22.73;;;6.67;;
2618;SDS011;1319;52.346;13.096;2024-02-21T03:35:47;24.57;;;7.20;;
2618;SDS011;1319;52.346;13.096;2024-02-21T03:38:13;23.80;;;7.43;;
2618;SDS011;1319;52.346;13.096;2024-02-21T03:40:38;17.30;;;6.90;;
2618;SDS011;1319;52.346;13.096;2024-02-21T03:43:03;24.53;;;7.23;;
2618;SDS011;1319;52.346;13.096;2024-02-21T03:45:28;20.80;;;6.80;;
2618;SDS011;1319;52.346;13.096;2024-02-21T03:47:54;22.67;;;6.93;;
2618;SDS011;1319;52.346;13.096;2024-02-21T03:50:19;24.07;;;7.97;;
2618;SDS011;1319;52.346;13.096;2024-02-21T03:52:45;28.30;;;7.57;;
2618;SDS011;1319;52.346;13.096;2024-02-21T03:55:10;23.50;;;6.77;;
2618;SDS011;1319;52.346;13.096;2024-02-21T03:57:35;20.37;;;7.00;;
2618;SDS011;1319;52.346;13.096;2024-02-21T04:00:01;29.03;;;6.90;;
2618;SDS011;1319;52.346;13.096;2024-02-21T04:02:26;29.47;;;7.50;;
2618;SDS011;1319;52.346;13.096;2024-02-21T04:04:51;28.73;;;7.60;;
2618;SDS011;1319;52.346;13.096;2024-02-21T04:07:16;26.30;;;7.07;;
2618;SDS011;1319;52.346;13.096;2024-02-21T04:09:42;23.57;;;7.40;;
2618;SDS011;1319;52.346;13.096;2024-02-21T04:12:07;31.27;;;7.90;;
2618;SDS011;1319;52.346;13.096;2024-02-21T04:14:33;25.13;;;8.33;;
2618;SDS011;1319;52.346;13.096;2024-02-21T04:16:59;22.37;;;6.63;;
2618;SDS011;1319;52.346;13.096;2024-02-21T04:19:24;23.67;;;7.03;;
2618;SDS011;1319;52.346;13.096;2024-02-21T04:21:49;28.60;;;7.70;;
2618;SDS011;1319;52.346;13.096;2024-02-21T04:24:14;28.83;;;7.97;;
2618;SDS011;1319;52.346;13.096;2024-02-21T04:26:40;28.13;;;7.57;;
2618;SDS011;1319;52.346;13.096;2024-02-21T04:29:05;27.73;;;7.70;;
2618;SDS011;1319;52.346;13.096;2024-02-21T04:31:32;30.33;;;8.30;;
2618;SDS011;1319;52.346;13.096;2024-02-21T04:33:57;27.77;;;8.13;;
2618;SDS011;1319;52.346;13.096;2024-02-21T04:36:22;32.37;;;7.60;;
2618;SDS011;1319;52.346;13.096;2024-02-21T04:38:47;25.27;;;8.43;;
2618;SDS011;1319;52.346;13.096;2024-02-21T04:41:12;34.50;;;8.13;;
2618;SDS011;1319;52.346;13.096;2024-02-21T04:43:38;30.07;;;7.67;;
2618;SDS011;1319;52.346;13.096;2024-02-21T04:46:03;28.13;;;8.17;;
2618;SDS011;1319;52.346;13.096;2024-02-21T04:48:29;23.70;;;8.23;;
2618;SDS011;1319;52.346;13.096;2024-02-21T04:50:54;27.33;;;8.43;;
2618;SDS011;1319;52.346;13.096;2024-02-21T04:53:19;26.67;;;8.33;;
2618;SDS011;1319;52.346;13.096;2024-02-21T04:55:45;30.43;;;8.50;;
2618;SDS011;1319;52.346;13.096;2024-02-21T04:58:10;22.67;;;7.50;;
2618;SDS011;1319;52.346;13.096;2024-02-21T05:00:35;25.40;;;8.33;;
2618;SDS011;1319;52.346;13.096;2024-02-21T05:03:00;26.47;;;7.57;;
2618;SDS011;1319;52.346;13.096;2024-02-21T05:05:25;28.40;;;7.93;;
2618;SDS011;1319;52.346;13.096;2024-02-21T05:07:51;26.63;;;8.13;;
2618;SDS011;1319;52.346;13.096;2024-02-21T05:10:16;29.17;;;7.87;;
2618;SDS011;1319;52.346;13.096;2024-02-21T05:12:42;30.60;;;8.20;;
2618;SDS011;1319;52.346;13.096;2024-02-21T05:15:08;29.60;;;8.17;;
2618;SDS011;1319;52.346;13.096;2024-02-21T05:17:33;26.33;;;8.70;;
2618;SDS011;1319;52.346;13.096;2024-02-21T05:19:58;34.27;;;8.93;;
2618;SDS011;1319;52.346;13.096;2024-02-21T05:22:23;25.90;;;8.10;;
2618;SDS011;1319;52.346;13.096;2024-02-21T05:24:48;27.93;;;7.90;;
2618;SDS011;1319;52.346;13.096;2024-02-21T05:27:14;30.30;;;9.00;;
2618;SDS011;1319;52.346;13.096;2024-02-21T05:29:40;24.73;;;8.10;;
2618;SDS011;1319;52.346;13.096;2024-02-21T05:32:05;22.07;;;8.20;;
2618;SDS011;1319;52.346;13.096;2024-02-21T05:34:31;30.83;;;8.97;;
2618;SDS011;1319;52.346;13.096;2024-02-21T05:36:56;27.73;;;8.77;;
2618;SDS011;1319;52.346;13.096;2024-02-21T05:39:22;25.03;;;8.57;;
2618;SDS011;1319;52.346;13.096;2024-02-21T05:41:49;29.60;;;9.07;;
2618;SDS011;1319;52.346;13.096;2024-02-21T05:44:14;27.77;;;9.17;;
2618;SDS011;1319;52.346;13.096;2024-02-21T05:46:40;22.40;;;8.60;;
2618;SDS011;1319;52.346;13.096;2024-02-21T05:49:05;26.47;;;8.60;;
2618;SDS011;1319;52.346;13.096;2024-02-21T05:51:32;29.57;;;8.73;;
2618;SDS011;1319;52.346;13.096;2024-02-21T05:53:57;27.27;;;9.57;;
2618;SDS011;1319;52.346;13.096;2024-02-21T05:56:22;27.97;;;9.80;;
2618;SDS011;1319;52.346;13.096;2024-02-21T05:58:48;22.00;;;8.90;;
2618;SDS011;1319;52.346;13.096;2024-02-21T06:01:13;25.13;;;9.03;;
2618;SDS011;1319;52.346;13.096;2024-02-21T06:03:38;27.90;;;9.57;;
2618;SDS011;1319;52.346;13.096;2024-02-21T06:06:04;32.17;;;9.53;;
2618;SDS011;1319;52.346;13.096;2024-02-21T06:08:30;30.13;;;9.37;;
2618;SDS011;1319;52.346;13.096;2024-02-21T06:10:55;26.77;;;9.40;;
2618;SDS011;1319;52.346;13.096;2024-02-21T06:13:21;26.50;;;9.23;;
2618;SDS011;1319;52.346;13.096;2024-02-21T06:15:46;31.53;;;9.40;;
2618;SDS011;1319;52.346;13.096;2024-02-21T06:18:12;21.30;;;9.37;;
2618;SDS011;1319;52.346;13.096;2024-02-21T06:20:37;27.00;;;9.13;;
2618;SDS011;1319;52.346;13.096;2024-02-21T06:23:05;33.33;;;9.63;;
2618;SDS011;1319;52.346;13.096;2024-02-21T06:25:30;32.03;;;9.20;;
2618;SDS011;1319;52.346;13.096;2024-02-21T06:27:55;26.87;;;9.20;;
2618;SDS011;1319;52.346;13.096;2024-02-21T06:30:20;32.43;;;10.03;;
2618;SDS011;1319;52.346;13.096;2024-02-21T06:32:46;27.27;;;8.97;;
2618;SDS011;1319;52.346;13.096;2024-02-21T06:35:11;28.43;;;9.10;;
2618;SDS011;1319;52.346;13.096;2024-02-21T06:37:36;27.03;;;9.13;;
2618;SDS011;1319;52.346;13.096;2024-02-21T06:40:03;27.70;;;9.30;;
2618;SDS011;1319;52.346;13.096;2024-02-21T06:42:28;23.47;;;8.93;;
2618;SDS011;1319;52.346;13.096;2024-02-21T06:44:54;33.93;;;9.37;;
2618;SDS011;1319;52.346;13.096;2024-02-21T06:47:21;23.63;;;8.90;;
2618;SDS011;1319;52.346;13.096;2024-02-21T06:49:50;32.23;;;8.53;;
2618;SDS011;1319;52.346;13.096;2024-02-21T06:52:19;31.30;;;9.07;;
2618;SDS011;1319;52.346;13.096;2024-02-21T06:54:48;25.10;;;8.90;;
2618;SDS011;1319;52.346;13.096;2024-02-21T06:57:14;26.83;;;8.77;;
2618;SDS011;1319;52.346;13.096;2024-02-21T06:59:40;24.90;;;8.80;;
2618;SDS011;1319;52.346;13.096;2024-02-21T07:02:05;17.93;;;7.93;;
2618;SDS011;1319;52.346;13.096;2024-02-21T07:04:30;25.97;;;8.07;;
2618;SDS011;1319;52.346;13.096;2024-02-21T07:06:56;22.10;;;8.00;;
2618;SDS011;1319;52.346;13.096;2024-02-21T07:09:21;25.93;;;7.10;;
2618;SDS011;1319;52.346;13.096;2024-02-21T07:11:46;18.10;;;7.20;;
2618;SDS011;1319;52.346;13.096;2024-02-21T07:14:11;23.80;;;8.43;;
2618;SDS011;1319;52.346;13.096;2024-02-21T07:16:37;26.57;;;7.30;;
2618;SDS011;1319;52.346;13.096;2024-02-21T07:19:02;21.57;;;7.10;;
2618;SDS011;1319;52.346;13.096;2024-02-21T07:21:27;19.87;;;7.10;;
2618;SDS011;1319;52.346;13.096;2024-02-21T07:23:53;19.43;;;7.63;;
2618;SDS011;1319;52.346;13.096;2024-02-21T07:26:18;22.20;;;7.10;;
2618;SDS011;1319;52.346;13.096;2024-02-21T07:28:43;23.47;;;7.00;;
2618;SDS011;1319;52.346;13.096;2024-02-21T07:31:09;19.53;;;7.17;;
2618;SDS011;1319;52.346;13.096;2024-02-21T07:33:34;22.90;;;7.53;;
2618;SDS011;1319;52.346;13.096;2024-02-21T07:36:00;23.73;;;7.17;;
2618;SDS011;1319;52.346;13.096;2024-02-21T07:38:25;17.60;;;6.80;;
2618;SDS011;1319;52.346;13.096;2024-02-21T07:40:51;30.37;;;7.57;;
2618;SDS011;1319;52.346;13.096;2024-02-21T07:43:16;22.20;;;7.37;;
2618;SDS011;1319;52.346;13.096;2024-02-21T07:45:41;17.40;;;6.90;;
2618;SDS011;1319;52.346;13.096;2024-02-21T07:48:06;24.13;;;7.93;;
2618;SDS011;1319;52.346;13.096;2024-02-21T07:50:32;18.63;;;7.10;;
2618;SDS011;1319;52.346;13.096;2024-02-21T07:52:57;21.63;;;8.03;;
2618;SDS011;1319;52.346;13.096;2024-02-21T07:55:22;21.07;;;7.37;;
2618;SDS011;1319;52.346;13.096;2024-02-21T07:57:47;23.77;;;8.27;;
2618;SDS011;1319;52.346;13.096;2024-02-21T08:00:13;26.30;;;8.50;;
2618;SDS011;1319;52.346;13.096;2024-02-21T08:02:45;19.97;;;7.70;;
2618;SDS011;1319;52.346;13.096;2024-02-21T08:05:10;26.00;;;7.97;;
2618;SDS011;1319;52.346;13.096;2024-02-21T08:07:37;26.30;;;7.83;;
2618;SDS011;1319;52.346;13.096;2024-02-21T08:10:02;30.20;;;8.00;;
2618;SDS011;1319;52.346;13.096;2024-02-21T08:12:28;22.37;;;8.10;;
2618;SDS011;1319;52.346;13.096;2024-02-21T08:14:53;20.03;;;7.53;;
2618;SDS011;1319;52.346;13.096;2024-02-21T08:17:18;21.77;;;8.40;;
2618;SDS011;1319;52.346;13.096;2024-02-21T08:19:43;20.83;;;8.67;;
2618;SDS011;1319;52.346;13.096;2024-02-21T08:22:09;29.53;;;8.20;;
2618;SDS011;1319;52.346;13.096;2024-02-21T08:24:34;23.87;;;8.43;;
2618;SDS011;1319;52.346;13.096;2024-02-21T08:26:59;23.17;;;7.87;;
2618;SDS011;1319;52.346;13.096;2024-02-21T08:29:25;18.93;;;7.67;;
2618;SDS011;1319;52.346;13.096;2024-02-21T08:31:50;22.73;;;7.80;;
2618;SDS011;1319;52.346;13.096;2024-02-21T08:34:15;19.17;;;8.43;;
2618;SDS011;1319;52.346;13.096;2024-02-21T08:36:40;16.10;;;7.53;;
2618;SDS011;1319;52.346;13.096;2024-02-21T08:39:05;17.00;;;8.20;;
2618;SDS011;1319;52.346;13.096;2024-02-21T08:41:31;17.40;;;8.07;;
2618;SDS011;1319;52.346;13.096;2024-02-21T08:43:57;22.30;;;8.20;;
2618;SDS011;1319;52.346;13.096;2024-02-21T08:46:22;18.83;;;7.93;;
2618;SDS011;1319;52.346;13.096;2024-02-21T08:48:49;16.10;;;8.20;;
2618;SDS011;1319;52.346;13.096;2024-02-21T08:51:14;22.40;;;6.60;;
2618;SDS011;1319;52.346;13.096;2024-02-21T08:53:39;22.37;;;8.30;;
2618;SDS011;1319;52.346;13.096;2024-02-21T08:56:05;21.83;;;8.13;;
2618;SDS011;1319;52.346;13.096;2024-02-21T08:58:30;17.20;;;8.50;;
2618;SDS011;1319;52.346;13.096;2024-02-21T09:00:56;18.37;;;7.93;;
2618;SDS011;1319;52.346;13.096;2024-02-21T09:03:21;19.47;;;7.90;;
2618;SDS011;1319;52.346;13.096;2024-02-21T09:05:47;20.50;;;7.70;;
2618;SDS011;1319;52.346;13.096;2024-02-21T09:08:12;18.97;;;7.90;;
2618;SDS011;1319;52.346;13.096;2024-02-21T09:10:37;20.33;;;7.70;;
2618;SDS011;1319;52.346;13.096;2024-02-21T09:13:03;17.97;;;8.33;;
2618;SDS011;1319;52.346;13.096;2024-02-21T09:15:28;20.33;;;7.70;;
2618;SDS011;1319;52.346;13.096;2024-02-21T09:17:54;18.50;;;8.30;;
2618;SDS011;1319;52.346;13.096;2024-02-21T09:20:19;21.87;;;8.77;;
2618;SDS011;1319;52.346;13.096;2024-02-21T09:22:44;15.63;;;6.73;;
2618;SDS011;1319;52.346;13.096;2024-02-21T09:25:10;20.50;;;7.93;;
2618;SDS011;1319;52.346;13.096;2024-02-21T09:27:37;20.93;;;8.23;;
2618;SDS011;1319;52.346;13.096;2024-02-21T09:30:02;20.50;;;8.00;;
2618;SDS011;1319;52.346;13.096;2024-02-21T09:32:29;20.00;;;8.03;;
2618;SDS011;1319;52.346;13.096;2024-02-21T09:34:56;15.67;;;7.60;;
2618;SDS011;1319;52.346;13.096;2024-02-21T09:37:21;17.47;;;8.10;;
2618;SDS011;1319;52.346;13.096;2024-02-21T09:39:46;15.87;;;7.53;;
2618;SDS011;1319;52.346;13.096;2024-02-21T09:42:12;17.17;;;8.27;;
2618;SDS011;1319;52.346;13.096;2024-02-21T09:44:39;17.73;;;8.50;;
2618;SDS011;1319;52.346;13.096;2024-02-21T09:47:12;18.17;;;8.47;;
2618;SDS011;1319;52.346;13.096;2024-02-21T09:49:40;18.20;;;8.23;;
2618;SDS011;1319;52.346;13.096;2024-02-21T09:52:07;20.70;;;8.47;;
2618;SDS011;1319;52.346;13.096;2024-02-21T09:54:33;16.60;;;8.43;;
2618;SDS011;1319;52.346;13.096;2024-02-21T09:57:01;21.43;;;7.73;;
2618;SDS011;1319;52.346;13.096;2024-02-21T09:59:27;22.77;;;8.27;;
2618;SDS011;1319;52.346;13.096;2024-02-21T10:01:52;19.77;;;7.90;;
2618;SDS011;1319;52.346;13.096;2024-02-21T10:04:18;17.97;;;7.50;;
2618;SDS011;1319;52.346;13.096;2024-02-21T10:06:44;17.87;;;7.80;;
2618;SDS011;1319;52.346;13.096;2024-02-21T10:09:19;15.40;;;7.80;;
2618;SDS011;1319;52.346;13.096;2024-02-21T10:11:44;20.13;;;7.87;;
2618;SDS011;1319;52.346;13.096;2024-02-21T10:14:09;15.40;;;7.50;;
2618;SDS011;1319;52.346;13.096;2024-02-21T10:16:35;18.47;;;7.57;;
2618;SDS011;1319;52.346;13.096;2024-02-21T10:19:00;21.87;;;7.20;;
2618;SDS011;1319;52.346;13.096;2024-02-21T10:21:25;18.57;;;7.50;;
2618;SDS011;1319;52.346;13.096;2024-02-21T10:23:51;14.10;;;7.13;;
2618;SDS011;1319;52.346;13.096;2024-02-21T10:26:20;10.90;;;6.50;;
2618;SDS011;1319;52.346;13.096;2024-02-21T10:28:45;14.97;;;6.73;;
2618;SDS011;1319;52.346;13.096;2024-02-21T10:31:21;17.97;;;7.53;;
2618;SDS011;1319;52.346;13.096;2024-02-21T10:33:53;16.30;;;7.07;;
2618;SDS011;1319;52.346;13.096;2024-02-21T10:36:18;14.73;;;6.70;;
2618;SDS011;1319;52.346;13.096;2024-02-21T10:38:45;12.83;;;6.37;;
2618;SDS011;1319;52.346;13.096;2024-02-21T10:41:10;16.63;;;6.50;;
2618;SDS011;1319;52.346;13.096;2024-02-21T10:43:39;13.97;;;7.87;;
2618;SDS011;1319;52.346;13.096;2024-02-21T10:46:07;15.43;;;6.63;;
2618;SDS011;1319;52.346;13.096;2024-02-21T10:48:45;15.30;;;6.77;;
2618;SDS011;1319;52.346;13.096;2024-02-21T10:51:17;13.37;;;7.00;;
2618;SDS011;1319;52.346;13.096;2024-02-21T10:53:54;14.10;;;6.80;;
2618;SDS011;1319;52.346;13.096;2024-02-21T10:56:30;16.50;;;7.20;;
2618;SDS011;1319;52.346;13.096;2024-02-21T10:58:59;16.20;;;6.70;;
2618;SDS011;1319;52.346;13.096;2024-02-21T11:01:25;12.37;;;6.50;;
2618;SDS011;1319;52.346;13.096;2024-02-21T11:03:52;10.90;;;6.43;;
2618;SDS011;1319;52.346;13.096;2024-02-21T11:06:19;14.17;;;6.57;;
2618;SDS011;1319;52.346;13.096;2024-02-21T11:08:46;12.67;;;6.07;;
2618;SDS011;1319;52.346;13.096;2024-02-21T11:11:12;15.20;;;5.90;;
2618;SDS011;1319;52.346;13.096;2024-02-21T11:13:42;11.57;;;5.53;;
2618;SDS011;1319;52.346;13.096;2024-02-21T11:16:11;10.73;;;5.90;;
2618;SDS011;1319;52.346;13.096;2024-02-21T11:18:37;13.30;;;5.90;;
2618;SDS011;1319;52.346;13.096;2024-02-21T11:21:02;9.97;;;5.53;;
2618;SDS011;1319;52.346;13.096;2024-02-21T11:23:29;13.50;;;5.60;;
2618;SDS011;1319;52.346;13.096;2024-02-21T11:26:05;9.97;;;5.27;;
2618;SDS011;1319;52.346;13.096;2024-02-21T11:28:30;15.17;;;5.60;;
2618;SDS011;1319;52.346;13.096;2024-02-21T11:31:06;8.43;;;5.00;;
2618;SDS011;1319;52.346;13.096;2024-02-21T11:33:32;9.47;;;5.57;;
2618;SDS011;1319;52.346;13.096;2024-02-21T11:35:58;11.23;;;5.50;;
2618;SDS011;1319;52.346;13.096;2024-02-21T11:38:23;12.50;;;5.27;;
2618;SDS011;1319;52.346;13.096;2024-02-21T11:40:50;10.30;;;4.93;;
2618;SDS011;1319;52.346;13.096;2024-02-21T11:43:15;8.97;;;4.70;;
2618;SDS011;1319;52.346;13.096;2024-02-21T11:45:41;13.00;;;4.43;;
2618;SDS011;1319;52.346;13.096;2024-02-21T11:48:08;5.70;;;3.90;;
2618;SDS011;1319;52.346;13.096;2024-02-21T11:50:36;9.43;;;4.57;;
2618;SDS011;1319;52.346;13.096;2024-02-21T11:53:02;7.97;;;4.53;;
2618;SDS011;1319;52.346;13.096;2024-02-21T11:55:28;10.13;;;4.40;;
2618;SDS011;1319;52.346;13.096;2024-02-21T11:57:53;10.17;;;4.47;;
2618;SDS011;1319;52.346;13.096;2024-02-21T12:00:18;11.80;;;4.80;;
2618;SDS011;1319;52.346;13.096;2024-02-21T12:02:46;7.47;;;4.20;;
2618;SDS011;1319;52.346;13.096;2024-02-21T12:05:12;13.33;;;5.47;;
2618;SDS011;1319;52.346;13.096;2024-02-21T12:07:37;11.63;;;5.43;;
2618;SDS011;1319;52.346;13.096;2024-02-21T12:10:11;10.30;;;4.47;;
2618;SDS011;1319;52.346;13.096;2024-02-21T12:12:37;8.97;;;5.00;;
2618;SDS011;1319;52.346;13.096;2024-02-21T12:15:03;9.17;;;5.00;;
2618;SDS011;1319;52.346;13.096;2024-02-21T12:17:29;10.73;;;4.77;;
2618;SDS011;1319;52.346;13.096;2024-02-21T12:19:55;11.20;;;4.67;;
2618;SDS011;1319;52.346;13.096;2024-02-21T12:22:21;9.73;;;4.53;;
2618;SDS011;1319;52.346;13.096;2024-02-21T12:24:46;15.10;;;4.40;;
2618;SDS011;1319;52.346;13.096;2024-02-21T12:27:12;11.57;;;4.93;;
2618;SDS011;1319;52.346;13.096;2024-02-21T12:29:38;10.20;;;4.80;;
2618;SDS011;1319;52.346;13.096;2024-02-21T12:32:03;12.50;;;4.90;;
2618;SDS011;1319;52.346;13.096;2024-02-21T12:34:29;8.77;;;5.73;;
2618;SDS011;1319;52.346;13.096;2024-02-21T12:36:57;9.67;;;4.60;;
2618;SDS011;1319;52.346;13.096;2024-02-21T12:39:22;9.07;;;4.77;;
2618;SDS011;1319;52.346;13.096;2024-02-21T12:41:47;9.50;;;4.53;;
2618;SDS011;1319;52.346;13.096;2024-02-21T12:44:13;13.10;;;4.70;;
2618;SDS011;1319;52.346;13.096;2024-02-21T12:46:39;10.50;;;4.50;;
2618;SDS011;1319;52.346;13.096;2024-02-21T12:49:07;11.53;;;4.37;;
2618;SDS011;1319;52.346;13.096;2024-02-21T12:51:35;11.87;;;4.67;;
2618;SDS011;1319;52.346;13.096;2024-02-21T12:54:01;5.83;;;3.80;;
2618;SDS011;1319;52.346;13.096;2024-02-21T12:56:29;11.33;;;4.27;;
2618;SDS011;1319;52.346;13.096;2024-02-21T12:58:56;10.17;;;4.30;;
2618;SDS011;1319;52.346;13.096;2024-02-21T13:01:21;10.67;;;4.00;;
2618;SDS011;1319;52.346;13.096;2024-02-21T13:03:46;7.50;;;3.80;;
2618;SDS011;1319;52.346;13.096;2024-02-21T13:06:11;7.70;;;3.80;;
2618;SDS011;1319;52.346;13.096;2024-02-21T13:08:37;8.83;;;4.10;;
2618;SDS011;1319;52.346;13.096;2024-02-21T13:11:02;7.67;;;3.93;;
2618;SDS011;1319;52.346;13.096;2024-02-21T13:13:27;7.37;;;3.60;;
2618;SDS011;1319;52.346;13.096;2024-02-21T13:15:53;8.00;;;3.17;;
2618;SDS011;1319;52.346;13.096;2024-02-21T13:18:18;7.63;;;3.43;;
2618;SDS011;1319;52.346;13.096;2024-02-21T13:20:43;8.87;;;3.73;;
2618;SDS011;1319;52.346;13.096;2024-02-21T13:23:08;6.93;;;3.77;;
2618;SDS011;1319;52.346;13.096;2024-02-21T13:25:34;6.37;;;3.43;;
2618;SDS011;1319;52.346;13.096;2024-02-21T13:27:59;5.47;;;3.03;;
2618;SDS011;1319;52.346;13.096;2024-02-21T13:30:24;5.67;;;3.30;;
2618;SDS011;1319;52.346;13.096;2024-02-21T13:32:50;4.90;;;3.30;;
2618;SDS011;1319;52.346;13.096;2024-02-21T13:35:16;5.00;;;3.50;;
2618;SDS011;1319;52.346;13.096;2024-02-21T13:37:41;5.33;;;3.13;;
2618;SDS011;1319;52.346;13.096;2024-02-21T13:40:07;7.07;;;3.10;;
2618;SDS011;1319;52.346;13.096;2024-02-21T13:42:38;9.60;;;3.07;;
2618;SDS011;1319;52.346;13.096;2024-02-21T13:45:04;5.80;;;3.03;;
2618;SDS011;1319;52.346;13.096;2024-02-21T13:47:33;5.47;;;3.40;;
2618;SDS011;1319;52.346;13.096;2024-02-21T13:49:59;4.80;;;3.03;;
2618;SDS011;1319;52.346;13.096;2024-02-21T13:52:24;5.83;;;3.80;;
2618;SDS011;1319;52.346;13.096;2024-02-21T13:54:51;10.67;;;4.20;;
2618;SDS011;1319;52.346;13.096;2024-02-21T13:57:16;9.80;;;4.67;;
2618;SDS011;1319;52.346;13.096;2024-02-21T13:59:41;9.20;;;4.47;;
2618;SDS011;1319;52.346;13.096;2024-02-21T14:02:07;8.73;;;4.20;;
2618;SDS011;1319;52.346;13.096;2024-02-21T14:04:33;9.10;;;4.17;;
2618;SDS011;1319;52.346;13.096;2024-02-21T14:06:58;8.33;;;3.90;;
2618;SDS011;1319;52.346;13.096;2024-02-21T14:09:23;7.60;;;3.50;;
2618;SDS011;1319;52.346;13.096;2024-02-21T14:11:48;8.27;;;3.60;;
2618;SDS011;1319;52.346;13.096;2024-02-21T14:14:14;9.57;;;3.80;;
2618;SDS011;1319;52.346;13.096;2024-02-21T14:16:40;10.80;;;4.00;;
2618;SDS011;1319;52.346;13.096;2024-02-21T14:19:05;7.37;;;3.37;;
2618;SDS011;1319;52.346;13.096;2024-02-21T14:21:31;7.90;;;3.50;;
2618;SDS011;1319;52.346;13.096;2024-02-21T14:23:57;8.23;;;3.50;;
2618;SDS011;1319;52.346;13.096;2024-02-21T14:26:22;11.40;;;4.27;;
2618;SDS011;1319;52.346;13.096;2024-02-21T14:28:47;8.00;;;3.77;;
2618;SDS011;1319;52.346;13.096;2024-02-21T14:31:12;8.63;;;3.80;;
2618;SDS011;1319;52.346;13.096;2024-02-21T14:33:38;10.87;;;3.73;;
2618;SDS011;1319;52.346;13.096;2024-02-21T14:36:03;10.97;;;3.77;;
2618;SDS011;1319;52.346;13.096;2024-02-21T14:38:28;11.10;;;4.00;;
2618;SDS011;1319;52.346;13.096;2024-02-21T14:40:54;7.60;;;3.50;;
2618;SDS011;1319;52.346;13.096;2024-02-21T14:43:19;7.67;;;3.80;;